LGMT

Mytilene International Airport

Mytilene, Greece
TAF LGMT 192000Z 1921/2006 VRB03KT 9999 SCT025 BECMG 1922/1924 16013KT PROB30 2000/2006 5000 BR SCT010 SCT016
Issued Valid From Valid To
Nov-19 @ 20:00 UTC
(2 hours ago)
Nov-19 @ 21:00 UTC
(an hour ago)
Nov-20 @ 06:00 UTC
(in 8 hours)
Expired Click to View Nov-19 @ 21:00 to Nov-19 @ 22:00
TAF LGMT 192000Z 1921/2006 VRB03KT 9999 SCT025
Wind Visibility Clouds
Variable at 3 knots 10,000+ meters
  • Scattered at 2,500' AGL
Becoming Nov-19 @ 22:00 to Nov-20 @ 06:00
BECMG 1922/1924 16013KT
Wind Visibility Clouds
160° at 13 knots 10,000+ meters
  • Scattered at 2,500' AGL
Probable  (Probability 30%) Nov-20 @ 00:00 to Nov-20 @ 06:00
PROB30 2000/2006 5000 BR SCT010 SCT016
Visibility Clouds Conditions
5,005 meters
  • Scattered at 1,000' AGL
  • Scattered at 1,600' AGL
  • Mist
TAF LGMT 192000Z 1921/2006 VRB03KT 9999 SCT025 BECMG 1922/1924 16013KT PROB30 2000/2006 5000 BR SCT010 SCT016
Issued Nov-19 @ 20:00 UTC
(2 hours ago)
Valid From Nov-19 @ 21:00 UTC
(an hour ago)
Valid To Nov-20 @ 06:00 UTC
(in 8 hours)
Nov-19 @ 21:00 - Nov-19 @ 22:00
Wind Visibility
Variable at 3 knots 10,000+ meters
Clouds
  • Scattered at 2,500' AGL
Becoming Nov-19 @ 22:00 - Nov-20 @ 06:00
Wind Visibility
160° at 13 knots 10,000+ meters
Clouds
  • Scattered at 2,500' AGL
Probability 30% Probable Nov-20 @ 00:00 - Nov-20 @ 06:00
Clouds
  • Scattered at 1,000' AGL
  • Scattered at 1,600' AGL
Conditions
  • Mist